createdAt,value
2019-04-20T00:02:31.531Z,14.60
2019-04-20T00:05:16.985Z,14.60
2019-04-20T00:08:08.939Z,14.50
2019-04-20T00:10:58.290Z,14.40
2019-04-20T00:13:54.877Z,14.40
2019-04-20T00:16:33.816Z,14.40
2019-04-20T00:19:26.182Z,14.40
2019-04-20T00:22:15.228Z,14.40
2019-04-20T00:25:20.975Z,14.40
2019-04-20T00:28:25.467Z,14.40
2019-04-20T00:31:09.079Z,14.40
2019-04-20T00:33:50.466Z,14.30
2019-04-20T00:36:32.859Z,14.30
2019-04-20T00:39:18.874Z,14.30
2019-04-20T00:42:08.083Z,14.30
2019-04-20T00:44:57.630Z,14.30
2019-04-20T00:47:50.102Z,14.30
2019-04-20T00:50:43.273Z,14.30
2019-04-20T00:53:22.904Z,14.30
2019-04-20T00:56:01.277Z,14.30
2019-04-20T00:58:55.769Z,14.30
2019-04-20T01:01:52.421Z,14.30
2019-04-20T01:04:39.244Z,14.30
2019-04-20T01:07:23.304Z,14.30
2019-04-20T01:10:05.051Z,14.20
2019-04-20T01:12:52.015Z,14.20
2019-04-20T01:15:46.463Z,14.20
2019-04-20T01:18:23.721Z,14.10
2019-04-20T01:21:13.901Z,14.10
2019-04-20T01:24:01.121Z,14.10
2019-04-20T01:26:43.487Z,14.10
2019-04-20T01:29:36.882Z,14.00
2019-04-20T01:32:29.757Z,14.00
2019-04-20T01:35:31.816Z,14.00
2019-04-20T01:38:16.383Z,13.90
2019-04-20T01:40:44.378Z,13.90
2019-04-20T01:43:29.260Z,13.90
2019-04-20T01:46:18.772Z,13.80
2019-04-20T01:49:09.185Z,13.80
2019-04-20T01:52:03.779Z,13.70
2019-04-20T01:55:04.824Z,13.70
2019-04-20T01:57:56.334Z,13.60
2019-04-20T02:00:44.952Z,13.60
2019-04-20T02:03:38.371Z,13.50
2019-04-20T02:06:30.053Z,13.50
2019-04-20T02:09:21.037Z,13.40
2019-04-20T02:12:10.751Z,13.30
2019-04-20T02:14:55.436Z,13.30
2019-04-20T02:17:43.343Z,13.20
2019-04-20T02:20:44.298Z,13.20
2019-04-20T02:23:22.377Z,13.10
2019-04-20T02:25:58.728Z,13.10
2019-04-20T02:29:14.424Z,13.00
2019-04-20T02:32:10.054Z,13.00
2019-04-20T02:38:06.889Z,12.90
2019-04-20T02:40:53.475Z,12.80
2019-04-20T02:44:06.519Z,12.80
2019-04-20T02:46:44.791Z,12.90
2019-04-20T02:52:19.123Z,12.80
2019-04-20T02:55:02.105Z,12.90
2019-04-20T02:57:58.441Z,12.90
2019-04-20T03:00:29.719Z,12.90
2019-04-20T03:03:07.799Z,12.90
2019-04-20T03:05:52.146Z,12.90
2019-04-20T03:08:54.555Z,12.90
2019-04-20T03:11:44.825Z,12.80
2019-04-20T03:14:17.673Z,12.90
2019-04-20T03:17:10.375Z,12.90
2019-04-20T03:19:47.811Z,12.80
2019-04-20T03:23:05.178Z,12.80
2019-04-20T03:25:53.341Z,12.80
2019-04-20T03:28:51.556Z,12.70
2019-04-20T03:32:22.285Z,12.80
2019-04-20T03:37:52.648Z,12.60
2019-04-20T03:40:21.329Z,12.50
2019-04-20T03:42:52.621Z,12.50
2019-04-20T03:45:49.816Z,12.50
2019-04-20T03:48:41.320Z,12.40
2019-04-20T03:51:40.039Z,12.40
2019-04-20T03:54:36.963Z,12.40
2019-04-20T03:57:34.781Z,12.30
2019-04-20T04:00:31.486Z,12.30
2019-04-20T04:03:49.896Z,12.30
2019-04-20T04:06:09.553Z,12.30
2019-04-20T04:08:58.656Z,12.30
2019-04-20T04:11:58.638Z,12.20
2019-04-20T04:14:32.493Z,12.20
2019-04-20T04:17:21.226Z,12.10
2019-04-20T04:20:11.181Z,12.10
2019-04-20T04:23:32.390Z,12.10
2019-04-20T04:26:12.363Z,12.10
2019-04-20T04:29:08.330Z,12.10
2019-04-20T04:31:59.446Z,12.10
2019-04-20T04:34:34.716Z,12.10
2019-04-20T04:37:25.514Z,12.10
2019-04-20T04:40:23.480Z,12.20
2019-04-20T04:42:58.446Z,12.20
2019-04-20T04:45:27.274Z,12.20
2019-04-20T04:48:14.769Z,12.20
2019-04-20T04:51:03.391Z,12.10
2019-04-20T04:53:52.929Z,12.10
2019-04-20T04:56:31.934Z,12.10
2019-04-20T04:59:17.174Z,12.10
2019-04-20T05:02:03.456Z,12.10
2019-04-20T05:05:10.292Z,12.10
2019-04-20T05:07:52.013Z,12.10
2019-04-20T05:10:26.985Z,12.10
2019-04-20T05:13:11.889Z,12.10
2019-04-20T05:16:13.583Z,12.10
2019-04-20T05:19:09.582Z,12.10
2019-04-20T05:22:19.645Z,12.10
2019-04-20T05:24:59.425Z,12.10
2019-04-20T05:27:47.903Z,12.10
2019-04-20T05:30:18.069Z,12.10
2019-04-20T05:33:09.132Z,12.10
2019-04-20T05:36:11.741Z,12.10
2019-04-20T05:39:06.796Z,12.10
2019-04-20T05:41:42.928Z,12.10
2019-04-20T05:44:27.711Z,12.10
2019-04-20T05:47:19.187Z,12.20
2019-04-20T05:49:58.692Z,12.20
2019-04-20T05:52:56.275Z,12.20
2019-04-20T05:55:43.207Z,12.30
2019-04-20T05:58:32.771Z,12.30
2019-04-20T06:01:20.245Z,12.40
2019-04-20T06:04:02.559Z,12.50
2019-04-20T06:06:52.081Z,12.60
2019-04-20T06:09:39.815Z,12.60
2019-04-20T06:12:42.760Z,12.70
2019-04-20T06:15:24.491Z,12.80
2019-04-20T06:18:19.016Z,12.90
2019-04-20T06:21:16.259Z,13.00
2019-04-20T06:27:14.387Z,13.10
2019-04-20T06:29:45.844Z,13.20
2019-04-20T06:33:24.591Z,13.30
2019-04-20T06:36:29.220Z,13.30
2019-04-20T06:39:08.417Z,13.40
2019-04-20T06:45:02.214Z,13.60
2019-04-20T06:47:33.742Z,13.60
2019-04-20T06:50:18.660Z,13.70
2019-04-20T06:53:16.318Z,13.80
2019-04-20T06:56:07.105Z,13.90
2019-04-20T06:58:53.753Z,13.90
2019-04-20T07:01:41.966Z,14.00
2019-04-20T07:04:38.889Z,14.10
2019-04-20T07:07:36.029Z,14.10
2019-04-20T07:10:16.243Z,14.20
2019-04-20T07:13:02.738Z,14.30
2019-04-20T07:16:18.321Z,14.30
2019-04-20T07:19:06.421Z,14.40
2019-04-20T07:22:10.535Z,14.50
2019-04-20T07:24:53.189Z,14.60
2019-04-20T07:27:36.692Z,14.70
2019-04-20T07:30:29.639Z,14.70
2019-04-20T07:33:22.718Z,14.80
2019-04-20T07:36:15.790Z,14.90
2019-04-20T07:38:55.164Z,14.90
2019-04-20T07:41:47.750Z,15.00
2019-04-20T07:44:34.761Z,15.10
2019-04-20T07:47:24.230Z,15.10
2019-04-20T07:50:03.722Z,15.20
2019-04-20T07:52:43.301Z,15.30
2019-04-20T07:55:45.788Z,15.40
2019-04-20T07:58:18.214Z,15.40
2019-04-20T08:01:41.322Z,15.50
2019-04-20T08:04:36.407Z,15.60
2019-04-20T08:07:09.171Z,15.60
2019-04-20T08:10:28.589Z,15.70
2019-04-20T08:13:42.128Z,15.80
2019-04-20T08:16:46.693Z,15.90
2019-04-20T08:19:28.795Z,16.00
2019-04-20T08:22:35.546Z,16.10
2019-04-20T08:25:20.292Z,16.20
2019-04-20T08:28:01.654Z,16.30
2019-04-20T08:31:06.566Z,16.40
2019-04-20T08:34:11.998Z,16.40
2019-04-20T08:36:57.061Z,16.50
2019-04-20T08:39:57.126Z,16.60
2019-04-20T08:42:47.698Z,16.70
2019-04-20T08:45:31.577Z,16.70
2019-04-20T08:48:19.005Z,16.80
2019-04-20T08:51:12.143Z,16.90
2019-04-20T08:53:59.969Z,17.00
2019-04-20T08:56:44.818Z,17.00
2019-04-20T08:59:40.102Z,17.10
2019-04-20T09:02:41.393Z,17.20
2019-04-20T09:05:55.311Z,17.30
2019-04-20T09:08:44.798Z,17.40
2019-04-20T09:11:41.561Z,17.40
2019-04-20T09:14:18.674Z,17.50
2019-04-20T09:17:18.302Z,17.60
2019-04-20T09:20:22.769Z,17.70
2019-04-20T09:23:21.569Z,17.80
2019-04-20T09:26:10.484Z,17.90
2019-04-20T09:28:56.779Z,18.00
2019-04-20T09:32:19.384Z,18.10
2019-04-20T09:35:09.799Z,18.30
2019-04-20T09:38:03.250Z,18.40
2019-04-20T09:40:50.782Z,18.60
2019-04-20T09:43:36.860Z,18.80
2019-04-20T09:46:22.282Z,18.90
2019-04-20T09:49:20.065Z,19.10
2019-04-20T09:52:12.175Z,19.40
2019-04-20T09:54:59.271Z,19.60
2019-04-20T09:58:01.433Z,19.90
2019-04-20T10:00:56.696Z,20.00
2019-04-20T10:03:29.101Z,20.00
2019-04-20T10:06:17.986Z,20.10
2019-04-20T10:09:26.795Z,20.00
2019-04-20T10:12:07.788Z,20.10
2019-04-20T10:15:04.158Z,20.10
2019-04-20T10:18:01.701Z,20.10
2019-04-20T10:20:47.346Z,20.10
2019-04-20T10:23:32.475Z,20.20
2019-04-20T10:26:18.652Z,20.20
2019-04-20T10:29:03.665Z,20.30
2019-04-20T10:31:57.161Z,20.30
2019-04-20T10:34:38.849Z,20.40
2019-04-20T10:37:25.665Z,20.50
2019-04-20T10:40:11.494Z,20.60
2019-04-20T10:43:01.041Z,20.80
2019-04-20T10:45:46.811Z,20.90
2019-04-20T10:48:42.599Z,20.90
2019-04-20T10:51:19.800Z,21.10
2019-04-20T10:54:04.619Z,21.20
2019-04-20T10:56:49.864Z,21.40
2019-04-20T10:59:34.603Z,21.60
2019-04-20T11:02:23.626Z,21.90
2019-04-20T11:05:22.327Z,22.20
2019-04-20T11:08:08.640Z,22.70
2019-04-20T11:11:05.155Z,23.20
2019-04-20T11:13:39.501Z,23.70
2019-04-20T11:16:28.518Z,24.80
2019-04-20T11:19:13.554Z,26.80
2019-04-20T11:21:59.318Z,29.60
2019-04-20T11:25:04.385Z,32.10
2019-04-20T11:27:56.401Z,34.50
2019-04-20T11:30:41.155Z,36.30
2019-04-20T11:33:29.987Z,37.70
2019-04-20T11:36:15.001Z,38.70
2019-04-20T11:39:00.755Z,39.60
2019-04-20T11:41:49.672Z,40.40
2019-04-20T11:44:35.423Z,41.10
2019-04-20T11:47:37.688Z,41.50
2019-04-20T11:50:41.519Z,41.70
2019-04-20T11:53:26.875Z,42.10
2019-04-20T11:56:17.921Z,42.20
2019-04-20T11:59:00.939Z,42.30
2019-04-20T12:01:58.491Z,42.20
2019-04-20T12:05:09.054Z,42.30
2019-04-20T12:07:55.449Z,42.30
2019-04-20T12:10:56.708Z,42.40
2019-04-20T12:13:40.598Z,42.30
2019-04-20T12:16:25.712Z,42.10
2019-04-20T12:19:10.669Z,42.00
2019-04-20T12:21:59.949Z,41.80
2019-04-20T12:24:47.924Z,41.60
2019-04-20T12:27:36.616Z,41.50
2019-04-20T12:30:23.796Z,41.40
2019-04-20T12:33:09.479Z,41.30
2019-04-20T12:35:58.253Z,40.90
2019-04-20T12:38:43.310Z,40.50
2019-04-20T12:41:37.904Z,40.10
2019-04-20T12:44:17.596Z,40.00
2019-04-20T12:47:03.614Z,39.70
2019-04-20T12:49:49.600Z,39.50
2019-04-20T12:52:37.011Z,39.30
2019-04-20T12:55:40.881Z,39.20
2019-04-20T12:58:28.556Z,39.10
2019-04-20T13:01:14.613Z,39.10
2019-04-20T13:04:06.158Z,39.10
2019-04-20T13:06:52.396Z,39.20
2019-04-20T13:09:48.647Z,39.20
2019-04-20T13:12:46.661Z,39.20
2019-04-20T13:15:46.574Z,39.20
2019-04-20T13:18:43.336Z,39.40
2019-04-20T13:21:29.232Z,39.60
2019-04-20T13:24:20.908Z,39.80
2019-04-20T13:27:07.041Z,39.90
2019-04-20T13:29:53.017Z,39.80
2019-04-20T13:32:38.316Z,39.70
2019-04-20T13:35:23.253Z,39.50
2019-04-20T13:38:08.192Z,39.60
2019-04-20T13:40:53.663Z,39.80
2019-04-20T13:43:39.734Z,39.90
2019-04-20T13:46:24.978Z,39.90
2019-04-20T13:49:13.190Z,40.00
2019-04-20T13:51:59.068Z,40.00
2019-04-20T13:54:45.199Z,40.10
2019-04-20T13:57:35.692Z,40.10
2019-04-20T14:00:40.945Z,40.10
2019-04-20T14:03:30.010Z,40.10
2019-04-20T14:06:16.834Z,40.20
2019-04-20T14:09:03.459Z,40.10
2019-04-20T14:11:49.475Z,40.10
2019-04-20T14:14:35.052Z,40.20
2019-04-20T14:17:23.458Z,40.20
2019-04-20T14:20:15.040Z,40.10
2019-04-20T14:22:58.894Z,40.00
2019-04-20T14:26:03.084Z,40.10
2019-04-20T14:29:07.303Z,40.50
2019-04-20T14:31:52.194Z,40.70
2019-04-20T14:34:36.610Z,40.70
2019-04-20T14:37:22.595Z,39.50
2019-04-20T14:40:08.192Z,37.80
2019-04-20T14:42:54.808Z,36.10
2019-04-20T14:45:40.792Z,34.60
2019-04-20T14:48:25.283Z,33.30
2019-04-20T14:51:09.842Z,32.30
2019-04-20T14:53:57.492Z,31.50
2019-04-20T14:56:43.473Z,30.70
2019-04-20T14:59:31.553Z,30.10
2019-04-20T15:02:19.687Z,29.50
2019-04-20T15:05:05.474Z,29.00
2019-04-20T15:07:50.941Z,28.70
2019-04-20T15:10:36.572Z,28.30
2019-04-20T15:13:22.559Z,28.00
2019-04-20T15:16:08.591Z,27.70
2019-04-20T15:18:58.161Z,27.50
2019-04-20T15:21:45.414Z,27.30
2019-04-20T15:24:31.448Z,27.10
2019-04-20T15:27:16.292Z,26.90
2019-04-20T15:30:02.566Z,26.70
2019-04-20T15:32:47.320Z,26.60
2019-04-20T15:35:50.569Z,26.50
2019-04-20T15:38:53.889Z,26.30
2019-04-20T15:41:57.312Z,26.20
2019-04-20T15:44:45.119Z,26.10
2019-04-20T15:47:30.018Z,26.00
2019-04-20T15:50:15.958Z,25.90
2019-04-20T15:53:02.226Z,25.90
2019-04-20T15:55:49.219Z,25.80
2019-04-20T15:58:34.524Z,25.80
2019-04-20T16:01:20.887Z,25.70
2019-04-20T16:04:12.748Z,25.70
2019-04-20T16:06:54.994Z,25.60
2019-04-20T16:09:59.118Z,25.50
2019-04-20T16:13:13.484Z,25.40
2019-04-20T16:15:49.779Z,25.30
2019-04-20T16:18:34.982Z,25.30
2019-04-20T16:21:24.352Z,25.20
2019-04-20T16:24:09.063Z,25.10
2019-04-20T16:27:11.723Z,25.00
2019-04-20T16:29:57.742Z,25.00
2019-04-20T16:32:42.810Z,24.90
2019-04-20T16:35:28.679Z,24.80
2019-04-20T16:38:18.259Z,24.80
2019-04-20T16:41:04.217Z,24.80
2019-04-20T16:43:53.289Z,24.80
2019-04-20T16:46:38.420Z,24.80
2019-04-20T16:49:25.995Z,24.80
2019-04-20T16:52:10.656Z,24.80
2019-04-20T16:54:55.619Z,24.80
2019-04-20T16:57:41.624Z,24.80
2019-04-20T17:00:27.597Z,24.70
2019-04-20T17:03:13.182Z,24.70
2019-04-20T17:05:58.170Z,24.60
2019-04-20T17:09:02.885Z,24.50
2019-04-20T17:11:47.838Z,24.40
2019-04-20T17:14:45.798Z,24.30
2019-04-20T17:17:33.707Z,24.20
2019-04-20T17:20:19.775Z,24.10
2019-04-20T17:23:07.398Z,24.00
2019-04-20T17:25:52.367Z,23.90
2019-04-20T17:28:57.714Z,23.70
2019-04-20T17:32:03.342Z,23.60
2019-04-20T17:35:01.799Z,23.50
2019-04-20T17:37:42.801Z,23.30
2019-04-20T17:40:48.058Z,23.20
2019-04-20T17:43:25.358Z,23.10
2019-04-20T17:46:28.738Z,23.00
2019-04-20T17:49:28.348Z,22.90
2019-04-20T17:52:24.139Z,22.80
2019-04-20T17:54:51.506Z,22.70
2019-04-20T17:57:37.323Z,22.60
2019-04-20T18:00:29.107Z,22.50
2019-04-20T18:03:54.078Z,22.40
2019-04-20T18:06:19.832Z,22.20
2019-04-20T18:09:05.284Z,22.10
2019-04-20T18:11:42.686Z,22.00
2019-04-20T18:14:40.247Z,22.00
2019-04-20T18:17:32.334Z,21.80
2019-04-20T18:20:07.212Z,21.70
2019-04-20T18:23:02.488Z,21.60
2019-04-20T18:26:17.097Z,21.60
2019-04-20T18:28:58.660Z,21.40
2019-04-20T18:31:33.524Z,21.30
2019-04-20T18:34:24.003Z,21.20
2019-04-20T18:37:12.910Z,21.10
2019-04-20T18:39:59.631Z,21.00
2019-04-20T18:42:43.882Z,20.90
2019-04-20T18:45:39.901Z,20.80
2019-04-20T18:48:49.510Z,20.60
2019-04-20T18:51:17.621Z,20.50
2019-04-20T18:54:10.577Z,20.40
2019-04-20T18:56:52.562Z,20.30
2019-04-20T18:59:45.439Z,20.20
2019-04-20T19:02:41.207Z,20.10
2019-04-20T19:05:33.545Z,19.90
2019-04-20T19:08:19.272Z,19.80
2019-04-20T19:11:25.375Z,19.70
2019-04-20T19:14:35.564Z,19.60
2019-04-20T19:17:37.209Z,19.40
2019-04-20T19:20:20.609Z,19.30
2019-04-20T19:23:18.854Z,19.20
2019-04-20T19:26:09.616Z,19.10
2019-04-20T19:28:54.803Z,19.00
2019-04-20T19:31:50.996Z,18.90
2019-04-20T19:34:52.000Z,18.80
2019-04-20T19:37:34.754Z,18.60
2019-04-20T19:40:28.861Z,18.60
2019-04-20T19:43:14.796Z,18.50
2019-04-20T19:46:30.987Z,18.40
2019-04-20T19:48:49.411Z,18.30
2019-04-20T19:51:48.081Z,18.30
2019-04-20T19:54:30.202Z,18.20
2019-04-20T19:57:31.996Z,18.20
2019-04-20T20:00:41.213Z,18.10
2019-04-20T20:03:26.034Z,18.00
2019-04-20T20:06:22.618Z,17.90
2019-04-20T20:09:06.772Z,17.90
2019-04-20T20:11:49.812Z,17.80
2019-04-20T20:14:39.674Z,17.70
2019-04-20T20:17:43.573Z,17.60
2019-04-20T20:20:35.828Z,17.50
2019-04-20T20:23:12.059Z,17.40
2019-04-20T20:26:02.452Z,17.30
2019-04-20T20:28:53.967Z,17.20
2019-04-20T20:31:49.952Z,17.20
2019-04-20T20:34:28.992Z,17.20
2019-04-20T20:37:12.361Z,17.10
2019-04-20T20:40:06.782Z,17.10
2019-04-20T20:43:06.111Z,17.00
2019-04-20T20:46:12.379Z,16.90
2019-04-20T20:49:04.736Z,16.90
2019-04-20T20:51:49.860Z,16.80
2019-04-20T20:54:36.168Z,16.70
2019-04-20T20:57:11.610Z,16.60
2019-04-20T21:00:02.392Z,16.60
2019-04-20T21:02:52.563Z,16.40
2019-04-20T21:05:29.471Z,16.30
2019-04-20T21:08:29.678Z,16.30
2019-04-20T21:11:23.453Z,16.10
2019-04-20T21:14:04.708Z,16.00
2019-04-20T21:17:00.336Z,15.90
2019-04-20T21:20:08.841Z,15.80
2019-04-20T21:23:11.545Z,15.70
2019-04-20T21:26:01.149Z,15.60
2019-04-20T21:28:45.974Z,15.50
2019-04-20T21:31:56.782Z,15.40
2019-04-20T21:34:36.199Z,15.30
2019-04-20T21:37:30.686Z,15.20
2019-04-20T21:40:25.114Z,15.20
2019-04-20T21:43:07.430Z,15.10
2019-04-20T21:45:59.765Z,15.00
2019-04-20T21:49:09.647Z,15.00
2019-04-20T21:51:57.247Z,14.90
2019-04-20T21:54:35.954Z,14.80
2019-04-20T21:57:22.065Z,14.80
2019-04-20T22:00:21.559Z,14.70
2019-04-20T22:03:03.988Z,14.60
2019-04-20T22:05:46.483Z,14.50
2019-04-20T22:08:32.687Z,14.50
2019-04-20T22:11:17.902Z,14.50
2019-04-20T22:14:10.740Z,14.40
2019-04-20T22:16:53.193Z,14.40
2019-04-20T22:19:44.106Z,14.30
2019-04-20T22:22:42.780Z,14.30
2019-04-20T22:25:36.262Z,14.20
2019-04-20T22:28:04.024Z,14.20
2019-04-20T22:31:09.434Z,14.20
2019-04-20T22:34:00.809Z,14.10
2019-04-20T22:36:48.477Z,14.10
2019-04-20T22:39:39.806Z,14.10
2019-04-20T22:42:23.568Z,14.00
2019-04-20T22:45:12.390Z,14.00
2019-04-20T22:48:02.267Z,13.90
2019-04-20T22:51:01.644Z,13.90
2019-04-20T22:53:45.339Z,13.80
2019-04-20T22:56:35.659Z,13.80
2019-04-20T22:59:12.556Z,13.70
2019-04-20T23:01:56.116Z,13.60
2019-04-20T23:04:37.197Z,13.60
2019-04-20T23:07:23.016Z,13.60
2019-04-20T23:10:08.855Z,13.50
2019-04-20T23:12:59.576Z,13.50
2019-04-20T23:15:50.069Z,13.40
2019-04-20T23:18:31.877Z,13.40
2019-04-20T23:21:17.619Z,13.30
2019-04-20T23:24:18.832Z,13.30
2019-04-20T23:27:14.038Z,13.20
2019-04-20T23:29:55.352Z,13.10
2019-04-20T23:32:42.036Z,13.10
2019-04-20T23:35:31.626Z,13.10
2019-04-20T23:38:21.108Z,13.00
2019-04-20T23:41:03.933Z,13.00
2019-04-20T23:43:56.098Z,12.90
2019-04-20T23:46:45.454Z,12.90
2019-04-20T23:49:53.331Z,12.80
2019-04-20T23:52:42.823Z,12.80
2019-04-20T23:55:16.956Z,12.70
2019-04-20T23:58:06.738Z,12.60
